Nederlandse vliegveldverwachtingen (TAF)

Luchtvaartmeteorologische informatie voor operationeel gebruik en vluchtvoorbereiding is beschikbaar op www.luchtvaartmeteo.nl.

ZCZC
FC131700 EHGR     GILZE-RIJEN/GILZE-RIJEN   NLD   14 m.
TAF EHGR 131700Z NIL=

ZCZC
FC131700 EHKD     DE KOOY/DE KOOY   NLD   1 m.
TAF EHKD 131613Z 1317/1405 04009KT CAVOK
    PROB40 TEMPO 1318/1405 4000 SHRA SCT050CB SCT080
    PROB30 TEMPO 1318/1405 VRB15G30KT 2500 TSRAGR SCT025
    BKN040CB
    BECMG 1319/1321 VRB03KT=

ZCZC
FC131700 EHLW     LEEUWARDEN/LEEUWARDEN   NLD   1 m.
TAF EHLW 131631Z 1317/1405 04009KT CAVOK
    PROB40 TEMPO 1317/1405 3500 SHRA SCT050CB SCT080
    PROB30 TEMPO 1317/1405 VRB15G30KT 2000 TSRAGR SCT025
    BKN040CB
    BECMG 1319/1321 VRB03KT=

ZCZC
FC131700 EHVK     VOLKEL/VOLKEL   NLD   21 m.
TAF EHVK 131627Z 1317/1405 VRB03KT CAVOK
    TEMPO 1317/1401 3000 SHRA SCT045CB SCT080
    PROB40 TEMPO 1317/1322 VRB18G38KT 1000 TSRAGR FEW012
    SCT020 BKN035CB
    PROB30 1401/1405 2500 BR MIFG=

ZCZC
FC131700 EHWO     WOENSDRECHT/WOENSDRECHT   NLD   19 m.
TAF EHWO 131700Z NIL=

ZCZC
FT131700 EHAM     AMSTERDAM/SCHIPHOL   NLD   -3 m.
TAF EHAM 131716Z 1318/1424 VRB03KT CAVOK
    TEMPO 1318/1324 5000 TSRA SCT040CB
    PROB30 TEMPO 1319/1321 VRB20G30KT 2500 TSGR SCT015 BKN030CB
    PROB30 1400/1407 5000 BR
    PROB40 TEMPO 1412/1424 VRB12G22KT 6000 SHRA TSRA SCT030CB=

ZCZC
FT131700 EHBK     MAASTRICHT/MAASTRICHT-AACHEN   NLD   114 m.
TAF EHBK 131717Z 1318/1424 28006KT CAVOK
    PROB30 TEMPO 1318/1320 VRB22G35KT 3000 TSRA SCT040CB
    PROB30 TEMPO 1415/1420 VRB10G20KT 3000 TSRA SCT030CB=

ZCZC
FT131700 EHGG     GRONINGEN/EELDE   NLD   5 m.
TAF EHGG 131717Z 1318/1424 08007KT CAVOK
    PROB30 TEMPO 1318/1420 VRB15G25KT 4000 TSRA SCT040CB
    PROB30 1401/1407 4000 BR=

ZCZC
FT131700 EHLE     LELYSTAD/LELYSTAD   NLD   -3 m.
TAF EHLE 131717Z 1318/1424 VRB03KT CAVOK
    TEMPO 1318/1324 5000 TSRA SCT040CB
    PROB30 TEMPO 1319/1322 VRB23G35KT 2500 TSGR SCT015 BKN030CB
    PROB30 1401/1407 6000
    PROB40 TEMPO 1412/1424 VRB12G22KT 6000 SHRA TSRA SCT030CB=

ZCZC
FT131700 EHRD     ROTTERDAM/THE HAGUE AIRPORT   NLD   -5 m.
TAF EHRD 131717Z 1318/1424 VRB03KT CAVOK
    TEMPO 1318/1324 5000 TSRA SCT040CB
    PROB30 TEMPO 1318/1320 VRB23G35KT 2500 TSGR SCT015 BKN030CB
    PROB30 1400/1407 4000 BR
    PROB40 TEMPO 1412/1424 VRB12G22KT 6000 SHRA TSRA SCT030CB=

ZCZC
FT131700 EHEH     EINDHOVEN/EINDHOVEN   NLD   22 m.
TAF EHEH 131705Z 1318/1424 VRB03KT CAVOK
    TEMPO 1318/1324 3000 SHRA SCT045CB SCT080
    PROB40 TEMPO 1318/1321 VRB18G38KT 1000 TSRAGR FEW012
    SCT020 BKN035CB
    PROB30 1401/1405 2500 BR MIFG
    TEMPO 1410/1421 3500 SHRA SCT045CB SCT080
    PROB40 TEMPO 1410/1421 2000 SHRA TSRA SCT025 BKN040CB=

13/08/2020 20.15 uur LT